Ana Sayfa
METAR-TAF:

METAR-TAF

Havaalanları :

Wilbarger County Airport

Vernon, Teksas, Amerika Birleşik Devletleri

Enlem: 34-13-32N, Boylam: 099-17-01W, yükseklik: 386 m

Güncel hava durumu gözlemi

Rapor saat 22:55 UTC de 28 dakika önce yapıldı.
Rüzgar kuzeydan 20 kt ve 24 kt'a kadar ani rüzgarlar
Sıcaklık 14°C
Nem 63%
Basınç 1015 hPa
Görüş mesafesi: 16.1 km
3000 ft yükseklikte parçalı bulutlu
3900 ft yükseklikte çok bulutlu

METAR: KF05 162255Z AUTO 35020G24KT 10SM SCT030 OVC039 14/07 A2997 RMK AO2 T01410073

Saat: 18:23 (23:23 UTC)


TAF: eksik

4.000'den fazla havaalanı için hava durumu gözlemleri ve tahminleri (METAR ve TAF raporları).

Kullanılabilir istasyonlar harita üzerinde sarı ve kırmızı noktalarla gösterilir.

İstasyonun adını görmek için fareyi noktanın üzerinde gezdirin.

Sonrasında hava gözlem ve tahminlerini görmek için tıklayın.

Haritayı değiştirmek için: yaklaştırmak için siyah artı işaretli yeşil düğmeye ve uzaklaştırmak için de eksi işaretli düğmeye hızla tıklayın; bitişik haritalar için yeşil okları kullanın.


METAR-TAF: